Terminal Aerodrome Forecast
Issued by NWS

Home | Current Version | Previous Version | Text Only | Print | Product List | Glossary On
Versions: 1 2 3 4 5 6 7 8 9 10 11 12 13 14 15 16 17 18
000
FTUS43 KPAH 212320
TAFOWB
TAF
KOWB 212320Z 2200/2224 13005KT P6SM VCSH OVC050
     FM220600 00000KT 4SM BR OVC025
     FM221200 00000KT 2SM BR BKN015
     FM221600 20004KT P6SM BKN025=

USA.gov is the U.S. government's official web portal to all federal, state and local government web resources and services.